Time;durP1;ratioP1;P1;durP2;ratioP2;P2;SDS_P1;SDS_P2;PMS_P1;PMS_P2;Temp;Humidity;BMP_temperature;BMP_pressure;BME280_temperature;BME280_humidity;BME280_pressure;Samples;Min_cycle;Max_cycle;Signal;HPM_P1;HPM_P2
2023/03/10 00:02:03;;;;;;;1.27;0.70;;;11.10;99.90;;;;;;5007546;28;20267;-69
2023/03/10 00:04:29;;;;;;;0.90;0.80;;;11.10;99.90;;;;;;5028496;28;20765;-70
2023/03/10 00:06:55;;;;;;;1.50;1.00;;;11.10;99.90;;;;;;5027562;28;20223;-70
2023/03/10 00:09:20;;;;;;;0.70;0.70;;;11.20;99.90;;;;;;5013018;28;20210;-70
2023/03/10 00:11:47;;;;;;;2.40;1.10;;;11.10;99.90;;;;;;5026691;28;20229;-70
2023/03/10 00:14:13;;;;;;;0.80;0.80;;;11.10;99.90;;;;;;5028745;28;20248;-70
2023/03/10 00:16:39;;;;;;;2.20;0.60;;;11.10;99.90;;;;;;5026702;28;20448;-71
2023/03/10 00:19:05;;;;;;;1.10;0.90;;;11.00;99.90;;;;;;5011896;28;20439;-70
2023/03/10 00:21:31;;;;;;;0.80;0.73;;;11.10;99.90;;;;;;5049471;28;20986;-70
2023/03/10 00:23:57;;;;;;;0.87;0.87;;;11.10;99.90;;;;;;5027259;28;20271;-69
2023/03/10 00:26:26;;;;;;;0.60;0.60;;;11.10;99.90;;;;;;5025765;28;20999;-70
2023/03/10 00:28:53;;;;;;;0.80;0.67;;;11.10;99.90;;;;;;5014745;28;20224;-69
2023/03/10 00:31:21;;;;;;;5.03;1.17;;;11.10;99.90;;;;;;5030949;28;20540;-70
2023/03/10 00:33:48;;;;;;;0.80;0.80;;;11.00;99.90;;;;;;5031052;28;20471;-70
2023/03/10 00:36:20;;;;;;;1.37;0.70;;;11.10;99.90;;;;;;5019669;28;20462;-69
2023/03/10 00:38:47;;;;;;;0.80;0.60;;;11.00;99.90;;;;;;5028262;28;20545;-70
2023/03/10 00:41:15;;;;;;;1.83;0.77;;;11.00;99.90;;;;;;5010743;28;20527;-70
2023/03/10 00:43:41;;;;;;;1.37;0.80;;;11.00;99.90;;;;;;5049236;28;20494;-69
2023/03/10 00:46:08;;;;;;;1.23;0.77;;;11.10;99.90;;;;;;5027076;28;20486;-70
2023/03/10 00:48:34;;;;;;;1.23;1.00;;;11.00;99.90;;;;;;5026296;28;20458;-70
2023/03/10 00:51:00;;;;;;;2.33;0.90;;;11.00;99.90;;;;;;5012511;28;20475;-70
2023/03/10 00:53:27;;;;;;;1.07;0.87;;;11.00;99.90;;;;;;5021228;28;20474;-70
2023/03/10 00:55:57;;;;;;;0.77;0.77;;;11.00;99.90;;;;;;5030428;28;20484;-70
2023/03/10 00:58:23;;;;;;;1.60;0.87;;;11.00;99.90;;;;;;5018090;28;20455;-70
2023/03/10 01:00:49;;;;;;;0.80;0.73;;;11.00;99.90;;;;;;5030866;28;20535;-70
2023/03/10 01:03:14;;;;;;;1.47;1.00;;;11.00;99.90;;;;;;5031092;28;20302;-68
2023/03/10 01:05:40;;;;;;;0.60;0.60;;;11.00;99.90;;;;;;5031026;28;20218;-68
2023/03/10 01:08:07;;;;;;;0.67;0.67;;;11.10;99.90;;;;;;5048627;28;20251;-70
2023/03/10 01:10:33;;;;;;;1.80;1.17;;;11.00;99.90;;;;;;5025336;28;20497;-70
2023/03/10 01:12:58;;;;;;;2.00;0.90;;;11.00;99.90;;;;;;5027669;28;20257;-70
2023/03/10 01:15:25;;;;;;;0.90;0.70;;;11.00;99.90;;;;;;5012973;28;20218;-70
2023/03/10 01:17:50;;;;;;;0.70;0.70;;;11.00;99.90;;;;;;5029722;28;20450;-69
2023/03/10 01:20:17;;;;;;;1.33;0.57;;;11.00;99.90;;;;;;5010141;28;20208;-70
2023/03/10 01:22:43;;;;;;;1.47;1.27;;;11.00;99.90;;;;;;5025947;28;20224;-70
2023/03/10 01:25:18;;;;;;;2.40;0.80;;;10.90;99.90;;;;;;5013848;28;20476;-70
2023/03/10 01:27:43;;;;;;;1.17;0.60;;;11.00;99.90;;;;;;5006892;28;20744;-69
2023/03/10 01:30:10;;;;;;;0.77;0.73;;;11.00;99.90;;;;;;5013011;28;20487;-69
2023/03/10 01:32:37;;;;;;;1.17;1.07;;;11.00;99.90;;;;;;5039620;28;20303;-69
2023/03/10 01:35:06;;;;;;;1.27;0.90;;;11.00;99.90;;;;;;5030217;28;20981;-69
2023/03/10 01:37:33;;;;;;;0.80;0.70;;;11.00;99.90;;;;;;5029197;28;20443;-70
2023/03/10 01:40:00;;;;;;;1.80;0.90;;;10.90;99.90;;;;;;5022341;28;20466;-69
2023/03/10 01:42:26;;;;;;;1.73;0.57;;;10.90;99.90;;;;;;5014771;28;20475;-68
2023/03/10 01:45:21;;;;;;;1.13;0.80;;;11.00;99.90;;;;;;5029131;28;20458;-68
2023/03/10 01:47:47;;;;;;;0.60;0.60;;;11.00;99.90;;;;;;4933957;28;20484;-67
2023/03/10 01:50:16;;;;;;;0.70;0.70;;;11.00;99.90;;;;;;5031432;28;20958;-67
2023/03/10 01:52:51;;;;;;;0.83;0.67;;;10.90;99.90;;;;;;5033618;28;20759;-67
2023/03/10 01:55:22;;;;;;;0.60;0.60;;;10.90;99.90;;;;;;5012256;28;20816;-67
2023/03/10 01:57:53;;;;;;;3.87;0.60;;;10.90;99.90;;;;;;4999532;28;20450;-69
2023/03/10 02:00:20;;;;;;;0.80;0.50;;;10.90;99.90;;;;;;5013401;28;20843;-70
2023/03/10 02:03:07;;;;;;;0.80;0.80;;;10.90;99.90;;;;;;5020939;28;20473;-69
2023/03/10 02:05:37;;;;;;;0.90;0.60;;;10.90;99.90;;;;;;5005292;28;20457;-69
2023/03/10 02:08:04;;;;;;;0.90;0.70;;;11.00;99.90;;;;;;5025548;28;20596;-70
2023/03/10 02:10:31;;;;;;;1.10;0.67;;;10.80;99.90;;;;;;5013377;28;20443;-70
2023/03/10 02:12:56;;;;;;;0.53;0.53;;;10.80;99.90;;;;;;5044610;28;20456;-70
2023/03/10 02:15:22;;;;;;;4.43;0.83;;;10.80;99.90;;;;;;5052303;28;21047;-70
2023/03/10 02:17:50;;;;;;;2.90;0.67;;;10.80;99.90;;;;;;5032521;28;20695;-70
2023/03/10 02:20:39;;;;;;;2.43;0.70;;;10.80;99.90;;;;;;5034080;28;20578;-70
2023/03/10 02:23:06;;;;;;;1.13;0.90;;;10.80;99.90;;;;;;5014090;28;20482;-70
2023/03/10 02:25:52;;;;;;;0.70;0.63;;;10.80;99.90;;;;;;5021071;28;20445;-70
2023/03/10 02:28:19;;;;;;;1.23;0.70;;;10.80;99.90;;;;;;5030279;28;20461;-70
2023/03/10 02:30:49;;;;;;;0.83;0.63;;;10.70;99.90;;;;;;5016999;28;20453;-69
2023/03/10 02:33:22;;;;;;;0.67;0.67;;;10.80;99.90;;;;;;5030349;28;20221;-69
2023/03/10 02:35:48;;;;;;;1.00;0.67;;;10.80;99.90;;;;;;5031440;28;20804;-70
2023/03/10 02:38:18;;;;;;;0.80;0.73;;;10.80;99.90;;;;;;5066045;28;20474;-69
2023/03/10 02:40:48;;;;;;;3.20;0.67;;;10.70;99.90;;;;;;5050743;28;20998;-69
2023/03/10 02:43:25;;;;;;;2.40;1.03;;;10.70;99.90;;;;;;5032377;28;20279;-70
2023/03/10 02:45:59;;;;;;;1.00;1.00;;;10.60;99.90;;;;;;5048945;28;20459;-70
2023/03/10 02:48:29;;;;;;;1.63;0.97;;;10.70;99.90;;;;;;5018505;28;20462;-70
2023/03/10 02:50:56;;;;;;;2.13;0.87;;;10.70;99.90;;;;;;5016855;28;20465;-70
2023/03/10 02:53:25;;;;;;;1.13;1.10;;;10.60;99.90;;;;;;5010831;28;20477;-69
2023/03/10 02:55:52;;;;;;;0.93;0.83;;;10.70;99.90;;;;;;5025369;28;20471;-69
2023/03/10 02:58:19;;;;;;;2.00;1.00;;;10.80;99.90;;;;;;5010313;28;20452;-70
2023/03/10 03:00:46;;;;;;;0.80;0.80;;;10.80;99.90;;;;;;5015505;28;20455;-70
2023/03/10 03:03:16;;;;;;;1.70;0.90;;;10.70;99.90;;;;;;5015273;28;20509;-69
2023/03/10 03:05:44;;;;;;;0.70;0.60;;;10.70;99.90;;;;;;5032602;28;20969;-69
2023/03/10 03:08:10;;;;;;;1.17;0.87;;;10.80;99.90;;;;;;5032818;28;20482;-69
2023/03/10 03:10:36;;;;;;;5.60;0.80;;;10.80;99.90;;;;;;5050190;28;20459;-69
2023/03/10 03:13:04;;;;;;;0.80;0.80;;;10.80;99.90;;;;;;5020166;28;20462;-69
2023/03/10 03:15:30;;;;;;;5.20;0.73;;;10.80;99.90;;;;;;5032209;28;20478;-70
2023/03/10 03:17:57;;;;;;;0.87;0.70;;;10.80;99.90;;;;;;5015630;28;20447;-70
2023/03/10 03:20:24;;;;;;;1.17;0.70;;;10.80;99.90;;;;;;5032541;28;20463;-70
2023/03/10 03:22:50;;;;;;;0.77;0.77;;;10.60;99.90;;;;;;5032351;28;20470;-69
2023/03/10 03:25:18;;;;;;;0.70;0.70;;;10.50;99.90;;;;;;5015551;28;20508;-69
2023/03/10 03:27:44;;;;;;;1.90;0.90;;;10.50;99.90;;;;;;5015856;28;20216;-70
2023/03/10 03:30:17;;;;;;;0.73;0.73;;;10.50;99.90;;;;;;5031472;28;20510;-70
2023/03/10 03:32:43;;;;;;;0.77;0.77;;;10.50;99.90;;;;;;5029081;28;20925;-70
2023/03/10 03:35:31;;;;;;;2.13;0.90;;;10.60;99.90;;;;;;5048084;28;20463;-70
2023/03/10 03:37:57;;;;;;;3.50;1.23;;;10.50;99.90;;;;;;5048335;28;20539;-70
2023/03/10 03:40:26;;;;;;;0.73;0.70;;;10.50;99.90;;;;;;5028273;28;20529;-70
2023/03/10 03:42:53;;;;;;;0.80;0.80;;;10.40;99.90;;;;;;5031299;28;20466;-69
2023/03/10 03:45:22;;;;;;;0.97;0.67;;;10.40;99.90;;;;;;5015742;28;20507;-68
2023/03/10 03:47:49;;;;;;;0.77;0.77;;;10.40;99.90;;;;;;5031053;28;20459;-70
2023/03/10 03:50:17;;;;;;;1.07;0.97;;;10.40;99.90;;;;;;5033278;28;20463;-71
2023/03/10 03:52:44;;;;;;;0.83;0.83;;;10.30;99.90;;;;;;5032477;28;20455;-70
2023/03/10 03:55:14;;;;;;;1.70;0.70;;;10.40;99.90;;;;;;5016328;28;20707;-69
2023/03/10 03:57:43;;;;;;;1.23;1.10;;;10.40;99.90;;;;;;5031043;28;20454;-71
2023/03/10 04:00:13;;;;;;;2.10;1.00;;;10.40;99.90;;;;;;5031713;28;20492;-69
2023/03/10 04:02:41;;;;;;;0.90;0.90;;;10.50;99.90;;;;;;5031970;28;20467;-70
2023/03/10 04:05:08;;;;;;;1.30;1.20;;;10.40;99.90;;;;;;5048056;28;20470;-70
2023/03/10 04:07:34;;;;;;;1.07;0.97;;;10.50;99.90;;;;;;5015559;28;20443;-69
2023/03/10 04:10:01;;;;;;;1.37;1.23;;;10.50;99.90;;;;;;5047853;28;20455;-70
2023/03/10 04:12:28;;;;;;;1.30;1.20;;;10.60;99.90;;;;;;5022419;28;20458;-70
2023/03/10 04:14:54;;;;;;;2.83;1.20;;;10.60;99.90;;;;;;5014720;28;20482;-70
2023/03/10 04:17:20;;;;;;;1.17;0.70;;;10.60;99.90;;;;;;5011731;28;20454;-69
2023/03/10 04:19:46;;;;;;;1.50;1.23;;;10.60;99.90;;;;;;5030853;28;20485;-70
2023/03/10 04:22:16;;;;;;;2.20;1.23;;;10.60;99.90;;;;;;5015498;28;20594;-68
2023/03/10 04:24:43;;;;;;;0.90;0.90;;;10.60;99.90;;;;;;5029916;28;20473;-70
2023/03/10 04:27:10;;;;;;;1.20;1.13;;;10.60;99.90;;;;;;5047585;28;20459;-70
2023/03/10 04:29:36;;;;;;;1.60;1.00;;;10.60;99.90;;;;;;5030843;28;20205;-70
2023/03/10 04:32:03;;;;;;;1.73;1.00;;;10.60;99.90;;;;;;5030615;28;20877;-69
2023/03/10 04:34:30;;;;;;;1.77;1.40;;;10.60;99.90;;;;;;5030945;28;20523;-70
2023/03/10 04:36:56;;;;;;;1.37;1.27;;;10.50;99.90;;;;;;5030063;28;20480;-69
2023/03/10 04:39:22;;;;;;;1.67;1.03;;;10.60;99.90;;;;;;5030387;28;20915;-69
2023/03/10 04:41:48;;;;;;;1.10;0.87;;;10.60;99.90;;;;;;5031368;28;20228;-70
2023/03/10 04:44:13;;;;;;;1.67;1.30;;;10.60;99.90;;;;;;5014149;28;21003;-69
2023/03/10 04:46:39;;;;;;;2.77;1.20;;;10.60;99.90;;;;;;5027899;28;20309;-68
2023/03/10 04:49:06;;;;;;;3.67;1.43;;;10.40;99.90;;;;;;5047891;28;20968;-70
2023/03/10 04:51:33;;;;;;;2.20;1.23;;;10.50;99.90;;;;;;5015101;28;20569;-69
2023/03/10 04:53:59;;;;;;;5.73;1.73;;;10.40;99.90;;;;;;5030590;28;20718;-70
2023/03/10 04:56:28;;;;;;;1.87;0.93;;;10.50;99.90;;;;;;5063830;28;20505;-70
2023/03/10 04:58:54;;;;;;;1.83;1.63;;;10.50;99.90;;;;;;5023190;28;20452;-70
2023/03/10 05:01:21;;;;;;;2.63;1.03;;;10.50;99.90;;;;;;5030806;28;20459;-69
2023/03/10 05:03:51;;;;;;;5.70;1.40;;;10.50;99.90;;;;;;5014795;28;20498;-70
2023/03/10 05:06:19;;;;;;;2.20;1.37;;;10.50;99.90;;;;;;5014562;28;20986;-70
2023/03/10 05:08:51;;;;;;;2.07;1.23;;;10.50;99.90;;;;;;5030500;28;20221;-69
2023/03/10 05:11:20;;;;;;;5.47;1.23;;;10.50;99.90;;;;;;5030455;28;20821;-69
2023/03/10 05:13:46;;;;;;;4.07;1.30;;;10.50;99.90;;;;;;5014342;28;20445;-69
2023/03/10 05:16:18;;;;;;;0.90;0.80;;;10.50;99.90;;;;;;5030305;28;20458;-70
2023/03/10 05:18:45;;;;;;;2.40;1.00;;;10.50;99.90;;;;;;5011314;28;20535;-70
2023/03/10 05:21:12;;;;;;;2.30;1.43;;;10.50;99.90;;;;;;5013197;28;20459;-70
2023/03/10 05:23:38;;;;;;;1.93;0.80;;;10.50;99.90;;;;;;5064528;28;20521;-70
2023/03/10 05:26:07;;;;;;;3.13;1.20;;;10.50;99.90;;;;;;5030449;28;20459;-70
2023/03/10 05:28:33;;;;;;;3.47;1.00;;;10.50;99.90;;;;;;5005435;28;20447;-70
2023/03/10 05:31:00;;;;;;;2.80;1.17;;;10.50;99.90;;;;;;5030444;28;20463;-69
2023/03/10 05:33:26;;;;;;;3.50;0.93;;;10.50;99.90;;;;;;5011594;28;20459;-71
2023/03/10 05:35:52;;;;;;;6.73;1.40;;;10.40;99.90;;;;;;5031283;28;20781;-70
2023/03/10 05:38:18;;;;;;;1.97;1.20;;;10.40;99.90;;;;;;5012937;28;20538;-69
2023/03/10 05:40:43;;;;;;;2.60;1.00;;;10.40;99.90;;;;;;5014178;28;20219;-69
2023/03/10 05:43:10;;;;;;;2.87;1.20;;;10.40;99.90;;;;;;5029990;28;20224;-70
2023/03/10 05:45:36;;;;;;;3.83;1.50;;;10.40;99.90;;;;;;5047277;28;20216;-71
2023/03/10 05:48:03;;;;;;;1.47;1.10;;;10.40;99.90;;;;;;5012658;28;20454;-70
2023/03/10 05:50:29;;;;;;;1.77;0.80;;;10.40;99.90;;;;;;5028404;28;20474;-69
2023/03/10 05:52:55;;;;;;;0.80;0.80;;;10.40;99.90;;;;;;5016506;28;20485;-70
2023/03/10 05:55:22;;;;;;;2.97;0.93;;;10.40;99.90;;;;;;5030114;28;20466;-69
2023/03/10 05:57:48;;;;;;;1.40;1.03;;;10.40;99.90;;;;;;5029396;28;20228;-70
2023/03/10 06:00:15;;;;;;;3.60;1.10;;;10.40;99.90;;;;;;5012183;28;20473;-70
2023/03/10 06:02:44;;;;;;;2.30;1.10;;;10.30;99.90;;;;;;5013641;28;20227;-70
2023/03/10 06:05:12;;;;;;;4.30;1.37;;;10.30;99.90;;;;;;5047544;28;20458;-70
2023/03/10 06:07:38;;;;;;;2.93;1.00;;;10.30;99.90;;;;;;5030512;28;20208;-69
2023/03/10 06:10:05;;;;;;;1.20;1.10;;;10.30;99.90;;;;;;5015580;28;20466;-68
2023/03/10 06:12:33;;;;;;;2.60;1.10;;;10.30;99.90;;;;;;5029052;28;20470;-69
2023/03/10 06:14:59;;;;;;;2.80;1.10;;;10.30;99.90;;;;;;5012758;28;20489;-69
2023/03/10 06:17:25;;;;;;;5.63;1.13;;;10.30;99.90;;;;;;5013148;28;20838;-68
2023/03/10 06:19:51;;;;;;;1.23;0.90;;;10.40;99.90;;;;;;5030056;28;20223;-67
2023/03/10 06:22:17;;;;;;;1.17;1.00;;;10.40;99.90;;;;;;5012517;28;20225;-68
2023/03/10 06:24:44;;;;;;;2.50;1.53;;;10.40;99.90;;;;;;5013764;28;20456;-67
2023/03/10 06:27:10;;;;;;;4.50;1.30;;;10.40;99.90;;;;;;5029732;28;21000;-67
2023/03/10 06:29:35;;;;;;;1.30;1.20;;;10.40;99.90;;;;;;5043110;28;20462;-69
2023/03/10 06:32:01;;;;;;;4.93;1.00;;;10.40;99.90;;;;;;5029017;28;20267;-70
2023/03/10 06:34:27;;;;;;;1.27;0.87;;;10.40;99.90;;;;;;5029766;28;20219;-68
2023/03/10 06:36:54;;;;;;;3.20;1.40;;;10.40;99.90;;;;;;5045312;28;20279;-71
2023/03/10 06:39:20;;;;;;;1.23;0.83;;;10.30;99.90;;;;;;5062790;28;20208;-69
2023/03/10 06:41:46;;;;;;;1.13;0.70;;;10.30;99.90;;;;;;5017118;28;20538;-70
2023/03/10 06:44:17;;;;;;;3.27;1.20;;;10.30;99.90;;;;;;5051082;28;20231;-69
2023/03/10 06:46:46;;;;;;;0.80;0.80;;;10.40;99.90;;;;;;5048709;28;20295;-69
2023/03/10 06:49:11;;;;;;;3.33;0.90;;;10.30;99.90;;;;;;5015883;28;20451;-69
2023/03/10 06:51:37;;;;;;;2.27;0.73;;;10.30;99.90;;;;;;5034952;28;20846;-70
2023/03/10 06:54:03;;;;;;;2.37;0.90;;;10.30;99.90;;;;;;5033179;28;20220;-70
2023/03/10 06:56:29;;;;;;;1.20;1.07;;;10.30;99.90;;;;;;5033045;28;20795;-69
2023/03/10 06:58:55;;;;;;;1.30;0.90;;;10.30;99.90;;;;;;5065905;28;20460;-70
2023/03/10 07:01:25;;;;;;;1.73;0.93;;;10.30;99.90;;;;;;5028102;28;20706;-70
2023/03/10 07:03:51;;;;;;;1.17;0.80;;;10.30;99.90;;;;;;5016575;28;20311;-69
2023/03/10 07:06:17;;;;;;;6.77;1.50;;;10.30;99.90;;;;;;5029009;28;20455;-70
2023/03/10 07:08:43;;;;;;;3.60;1.43;;;10.30;99.90;;;;;;5016018;28;20984;-69
2023/03/10 07:11:09;;;;;;;4.00;1.07;;;10.20;99.90;;;;;;5032967;28;20224;-69
2023/03/10 07:13:35;;;;;;;4.17;1.17;;;10.30;99.90;;;;;;5051092;28;20301;-69
2023/03/10 07:16:00;;;;;;;3.00;0.80;;;10.30;99.90;;;;;;5032096;28;21062;-70
2023/03/10 07:18:28;;;;;;;3.37;1.43;;;10.40;99.90;;;;;;5032078;28;20217;-70
2023/03/10 07:20:54;;;;;;;1.67;0.80;;;10.40;99.90;;;;;;5032528;28;20212;-70
2023/03/10 07:23:21;;;;;;;3.37;1.00;;;10.40;99.90;;;;;;5015310;28;20486;-70
2023/03/10 07:25:51;;;;;;;1.93;0.90;;;10.40;99.90;;;;;;5030299;28;20451;-70
2023/03/10 07:28:17;;;;;;;2.80;0.97;;;10.40;99.90;;;;;;5049363;28;20455;-69
2023/03/10 07:30:43;;;;;;;1.03;0.97;;;10.40;99.90;;;;;;5031672;28;20473;-70
2023/03/10 07:33:09;;;;;;;3.03;0.90;;;10.40;99.90;;;;;;5049606;28;20228;-69
2023/03/10 07:35:35;;;;;;;3.50;1.03;;;10.30;99.90;;;;;;5031904;28;20465;-70
2023/03/10 07:38:01;;;;;;;1.03;0.73;;;10.20;99.90;;;;;;5031867;28;20262;-69
2023/03/10 07:40:26;;;;;;;1.90;0.90;;;10.10;99.90;;;;;;5015281;28;20561;-69
2023/03/10 07:42:53;;;;;;;1.23;0.90;;;10.10;99.90;;;;;;5015202;28;20682;-69
2023/03/10 07:45:20;;;;;;;3.13;0.77;;;10.00;99.90;;;;;;5031713;28;20216;-69
2023/03/10 07:47:45;;;;;;;1.57;0.97;;;10.00;99.90;;;;;;5031161;28;20533;-69
2023/03/10 07:50:11;;;;;;;1.20;0.67;;;9.90;99.90;;;;;;5045510;28;20507;-69
2023/03/10 07:52:37;;;;;;;0.50;0.40;;;9.90;99.90;;;;;;5032745;28;20809;-70
2023/03/10 07:55:03;;;;;;;0.80;0.50;;;9.90;99.90;;;;;;5015623;28;20247;-70
2023/03/10 07:57:28;;;;;;;1.90;0.90;;;9.80;99.90;;;;;;5029832;28;20586;-69
2023/03/10 07:59:54;;;;;;;0.93;0.60;;;9.70;99.90;;;;;;5045780;28;20303;-70
2023/03/10 08:02:20;;;;;;;3.43;0.83;;;9.70;99.90;;;;;;5013534;28;20219;-71
2023/03/10 08:04:45;;;;;;;0.90;0.70;;;9.70;99.90;;;;;;5031393;28;20323;-72
2023/03/10 08:07:11;;;;;;;2.13;0.50;;;9.60;99.90;;;;;;5048301;28;20208;-70
2023/03/10 08:09:37;;;;;;;0.80;0.40;;;9.70;99.90;;;;;;5028312;28;20211;-71
2023/03/10 08:12:03;;;;;;;2.93;0.80;;;9.70;99.90;;;;;;5046765;28;20556;-71
2023/03/10 08:14:30;;;;;;;1.53;0.80;;;9.60;99.90;;;;;;5029715;28;20330;-70
2023/03/10 08:16:56;;;;;;;1.00;0.50;;;9.60;99.90;;;;;;5031038;28;20216;-71
2023/03/10 08:19:23;;;;;;;0.77;0.73;;;9.70;99.90;;;;;;5030965;28;20480;-70
2023/03/10 08:21:49;;;;;;;1.33;0.57;;;9.80;99.90;;;;;;5014021;28;20443;-70
2023/03/10 08:24:15;;;;;;;1.60;0.77;;;9.80;99.90;;;;;;5047289;28;20515;-71
2023/03/10 08:26:41;;;;;;;0.80;0.70;;;9.80;99.90;;;;;;5064353;28;20247;-70
2023/03/10 08:29:06;;;;;;;1.37;0.73;;;9.70;99.90;;;;;;5047715;28;20212;-72
2023/03/10 08:31:32;;;;;;;2.60;0.70;;;9.70;99.90;;;;;;5005004;28;20291;-70
2023/03/10 08:33:58;;;;;;;0.97;0.80;;;9.70;99.90;;;;;;5031050;28;20274;-71
2023/03/10 08:36:26;;;;;;;0.47;0.43;;;9.80;99.90;;;;;;5046046;28;20215;-70
2023/03/10 08:38:54;;;;;;;1.27;0.60;;;9.80;99.90;;;;;;5026969;28;20568;-71
2023/03/10 08:41:29;;;;;;;2.77;1.13;;;9.90;99.90;;;;;;5028677;28;20459;-71
2023/03/10 08:43:56;;;;;;;3.40;0.80;;;10.10;99.90;;;;;;5013784;28;20524;-71
2023/03/10 08:46:24;;;;;;;0.63;0.63;;;10.20;99.90;;;;;;5013283;28;20469;-71
2023/03/10 08:48:50;;;;;;;3.40;0.87;;;10.20;99.90;;;;;;5048073;28;20987;-71
2023/03/10 08:51:17;;;;;;;1.10;0.90;;;10.20;99.90;;;;;;5025539;28;20526;-71
2023/03/10 08:53:45;;;;;;;2.07;0.90;;;10.20;99.90;;;;;;5031066;28;20956;-70
2023/03/10 08:56:11;;;;;;;3.63;1.07;;;10.10;99.90;;;;;;5047111;28;20960;-70
2023/03/10 08:58:37;;;;;;;3.03;1.00;;;10.10;99.90;;;;;;5026935;28;20457;-71
2023/03/10 09:01:03;;;;;;;1.60;1.03;;;10.10;99.90;;;;;;5045101;28;20215;-71
2023/03/10 09:03:28;;;;;;;1.90;0.97;;;10.20;99.90;;;;;;5028403;28;20277;-70
2023/03/10 09:05:54;;;;;;;1.10;1.00;;;10.20;99.90;;;;;;5030834;28;20219;-71
2023/03/10 09:08:20;;;;;;;3.80;1.27;;;10.20;99.90;;;;;;5011827;28;20216;-70
2023/03/10 09:10:46;;;;;;;4.40;1.03;;;10.10;99.90;;;;;;5030971;28;20257;-71
2023/03/10 09:13:12;;;;;;;3.03;1.00;;;10.10;99.90;;;;;;5026095;28;20553;-71
2023/03/10 09:15:40;;;;;;;1.13;0.93;;;10.20;99.90;;;;;;5040625;28;20279;-70
2023/03/10 09:18:10;;;;;;;2.80;1.40;;;10.20;99.90;;;;;;5013291;28;20447;-71
2023/03/10 09:20:38;;;;;;;1.50;1.23;;;10.20;99.90;;;;;;5012961;28;21005;-71
2023/03/10 09:23:04;;;;;;;1.70;1.20;;;10.30;99.90;;;;;;5030133;28;20473;-71
2023/03/10 09:25:30;;;;;;;1.23;1.13;;;10.30;99.90;;;;;;5027120;28;20455;-73
2023/03/10 09:27:56;;;;;;;2.30;1.00;;;10.30;99.90;;;;;;5044556;28;20461;-70
2023/03/10 09:30:22;;;;;;;3.03;1.00;;;10.30;99.90;;;;;;5026536;28;20236;-71
2023/03/10 09:32:47;;;;;;;1.97;1.00;;;10.30;99.90;;;;;;5027674;28;20253;-71
2023/03/10 09:35:13;;;;;;;2.57;1.03;;;10.20;99.90;;;;;;5008232;28;20233;-71
2023/03/10 09:37:39;;;;;;;1.83;1.00;;;10.30;99.90;;;;;;5030316;28;20267;-70
2023/03/10 09:40:08;;;;;;;1.80;0.90;;;10.30;99.90;;;;;;5048811;28;20217;-71
2023/03/10 09:42:42;;;;;;;1.70;0.80;;;10.30;99.90;;;;;;5024143;28;20232;-71
2023/03/10 09:45:31;;;;;;;0.80;0.80;;;10.30;99.90;;;;;;5013804;28;20497;-71
2023/03/10 09:48:11;;;;;;;1.70;0.87;;;10.30;99.90;;;;;;5004544;28;20451;-71
2023/03/10 09:50:46;;;;;;;0.73;0.67;;;10.40;99.90;;;;;;5028015;28;20897;-71
2023/03/10 09:53:33;;;;;;;0.70;0.70;;;10.50;99.90;;;;;;5024763;28;20975;-70
2023/03/10 09:55:59;;;;;;;1.07;0.80;;;10.70;99.90;;;;;;5048153;28;20461;-70
2023/03/10 09:58:34;;;;;;;1.73;0.93;;;10.70;99.90;;;;;;5042934;28;20830;-69
2023/03/10 10:01:00;;;;;;;3.07;1.43;;;10.70;99.90;;;;;;5027939;28;20234;-70
2023/03/10 10:03:41;;;;;;;1.17;1.07;;;10.60;99.90;;;;;;5047671;28;20470;-71
2023/03/10 10:06:13;;;;;;;2.70;1.50;;;10.60;99.90;;;;;;5044047;28;20820;-71
2023/03/10 10:08:47;;;;;;;1.63;1.10;;;10.60;99.90;;;;;;5027200;28;21000;-70
2023/03/10 10:11:15;;;;;;;0.93;0.80;;;10.50;99.90;;;;;;5024687;28;20452;-70
2023/03/10 10:13:41;;;;;;;1.50;1.40;;;10.50;99.90;;;;;;5015779;28;20984;-70
2023/03/10 10:16:34;;;;;;;1.60;1.00;;;10.50;99.90;;;;;;5030170;28;20462;-71
2023/03/10 10:19:13;;;;;;;2.20;1.00;;;10.60;99.90;;;;;;5051817;28;20472;-69
2023/03/10 10:22:07;;;;;;;1.90;0.87;;;10.70;99.90;;;;;;5029689;28;20468;-70
2023/03/10 10:24:33;;;;;;;0.70;0.70;;;10.80;99.90;;;;;;5016522;28;20524;-71
2023/03/10 10:26:59;;;;;;;1.10;1.00;;;11.00;99.90;;;;;;5031047;28;20896;-70
2023/03/10 10:29:36;;;;;;;1.33;0.60;;;11.10;99.90;;;;;;5047957;28;20347;-71
2023/03/10 10:32:13;;;;;;;0.77;0.77;;;11.30;99.90;;;;;;5028097;28;20220;-71
2023/03/10 10:34:41;;;;;;;1.40;0.90;;;11.40;99.90;;;;;;5029408;28;20461;-72
2023/03/10 10:37:41;;;;;;;1.37;0.70;;;11.50;99.90;;;;;;5029857;28;20843;-70
2023/03/10 10:40:25;;;;;;;0.90;0.67;;;11.60;99.90;;;;;;5051678;28;20533;-71
2023/03/10 10:42:53;;;;;;;0.50;0.50;;;11.70;99.90;;;;;;5033452;28;20504;-71
2023/03/10 10:45:34;;;;;;;0.60;0.50;;;11.80;99.90;;;;;;5016790;28;20466;-70
2023/03/10 10:48:00;;;;;;;1.63;0.50;;;11.80;99.90;;;;;;5033561;28;20459;-71
2023/03/10 10:50:34;;;;;;;0.40;0.40;;;11.90;99.90;;;;;;5016860;28;20810;-71
2023/03/10 10:53:15;;;;;;;1.40;0.83;;;12.00;99.90;;;;;;5033494;28;20714;-71
2023/03/10 10:55:45;;;;;;;1.93;0.70;;;12.10;99.90;;;;;;5022340;28;20852;-70
2023/03/10 10:58:31;;;;;;;0.77;0.67;;;12.30;99.90;;;;;;5028861;28;20450;-70
2023/03/10 11:01:03;;;;;;;1.10;0.50;;;12.30;99.90;;;;;;5029355;28;20471;-71
2023/03/10 11:03:29;;;;;;;1.37;0.80;;;12.40;99.90;;;;;;5031873;28;21071;-71
2023/03/10 11:05:55;;;;;;;0.70;0.70;;;12.50;99.90;;;;;;5050933;28;20463;-71
2023/03/10 11:08:38;;;;;;;0.97;0.90;;;12.50;99.90;;;;;;5032325;28;20229;-71
2023/03/10 11:11:07;;;;;;;1.20;1.03;;;12.60;99.90;;;;;;5045512;28;21075;-71
2023/03/10 11:14:00;;;;;;;4.47;1.37;;;12.80;99.90;;;;;;5032337;28;20452;-71
2023/03/10 11:17:09;;;;;;;0.80;0.80;;;12.70;99.90;;;;;;5024211;28;20525;-70
2023/03/10 11:19:51;;;;;;;1.87;0.90;;;12.80;99.90;;;;;;5013372;28;20946;-71
2023/03/10 11:22:35;;;;;;;1.23;0.87;;;12.70;99.90;;;;;;5019209;28;20559;-70
2023/03/10 11:25:24;;;;;;;0.83;0.60;;;12.60;99.90;;;;;;5031136;28;20461;-72
2023/03/10 11:28:32;;;;;;;1.23;0.80;;;12.50;99.90;;;;;;5030383;28;20561;-70
2023/03/10 11:31:24;;;;;;;1.33;1.23;;;12.30;99.90;;;;;;5007543;28;20455;-71
2023/03/10 11:34:13;;;;;;;0.63;0.63;;;12.10;99.90;;;;;;5042095;28;20423;-71
2023/03/10 11:36:57;;;;;;;1.10;1.00;;;12.10;99.90;;;;;;5012237;28;20802;-71
2023/03/10 11:39:42;;;;;;;1.27;0.70;;;12.00;99.90;;;;;;5047946;28;20544;-70
2023/03/10 11:42:15;;;;;;;0.70;0.50;;;12.00;99.90;;;;;;5022685;28;20483;-71
2023/03/10 11:44:43;;;;;;;0.87;0.70;;;12.00;99.90;;;;;;5045436;28;20515;-70
2023/03/10 11:47:31;;;;;;;0.60;0.57;;;12.10;99.90;;;;;;5015353;28;20534;-72
2023/03/10 11:50:22;;;;;;;0.50;0.50;;;12.10;99.90;;;;;;5064102;28;20463;-71
2023/03/10 11:52:53;;;;;;;3.80;0.73;;;12.10;99.90;;;;;;5045713;28;20497;-71
2023/03/10 11:55:20;;;;;;;1.10;0.60;;;12.00;99.90;;;;;;5047222;28;20464;-71
2023/03/10 11:57:51;;;;;;;1.27;0.90;;;12.10;99.90;;;;;;5047362;28;20532;-71
2023/03/10 12:00:24;;;;;;;0.90;0.67;;;12.10;99.90;;;;;;5048700;28;20473;-70
2023/03/10 12:03:15;;;;;;;0.87;0.87;;;12.00;99.90;;;;;;5049875;28;20479;-72
2023/03/10 12:06:06;;;;;;;1.17;0.50;;;12.10;99.90;;;;;;5007576;28;21051;-70
2023/03/10 12:08:33;;;;;;;0.70;0.40;;;12.00;99.90;;;;;;5034833;28;20493;-71
2023/03/10 12:11:03;;;;;;;0.80;0.50;;;11.90;99.90;;;;;;5053420;28;20489;-71
2023/03/10 12:13:43;;;;;;;0.60;0.60;;;11.80;99.90;;;;;;5029041;28;20511;-70
2023/03/10 12:16:19;;;;;;;0.53;0.43;;;11.60;99.90;;;;;;5011597;28;20467;-71
2023/03/10 12:18:45;;;;;;;1.73;0.57;;;11.50;99.90;;;;;;5051311;28;20523;-71
2023/03/10 12:21:25;;;;;;;0.50;0.50;;;11.50;99.90;;;;;;5031130;28;20464;-71
2023/03/10 12:23:54;;;;;;;0.83;0.50;;;11.40;99.90;;;;;;5033495;28;20467;-71
2023/03/10 12:26:37;;;;;;;0.70;0.50;;;11.30;99.90;;;;;;5039017;28;20493;-71
2023/03/10 12:29:34;;;;;;;0.80;0.50;;;11.30;99.90;;;;;;5035322;28;20457;-71
2023/03/10 12:32:00;;;;;;;0.90;0.60;;;11.30;99.90;;;;;;5002068;28;20843;-71
2023/03/10 12:34:30;;;;;;;0.50;0.50;;;11.30;99.90;;;;;;5032517;28;20455;-71
2023/03/10 12:37:04;;;;;;;0.70;0.70;;;11.20;99.90;;;;;;5033529;28;20473;-70
2023/03/10 12:39:43;;;;;;;0.50;0.50;;;11.10;99.90;;;;;;5052346;28;20452;-71
2023/03/10 12:42:17;;;;;;;0.40;0.40;;;11.00;99.90;;;;;;4994587;28;20464;-71
2023/03/10 12:44:48;;;;;;;0.60;0.60;;;11.00;99.90;;;;;;5023885;28;20465;-71
2023/03/10 12:47:43;;;;;;;0.50;0.50;;;11.00;99.90;;;;;;5013830;28;20864;-70
2023/03/10 12:50:30;;;;;;;0.60;0.60;;;11.00;99.90;;;;;;4967187;28;20483;-70
2023/03/10 12:53:17;;;;;;;0.77;0.60;;;10.90;99.90;;;;;;5002513;28;20483;-70
2023/03/10 12:56:12;;;;;;;0.40;0.30;;;10.90;99.90;;;;;;5051490;28;20460;-71
2023/03/10 12:58:51;;;;;;;0.60;0.50;;;10.90;99.90;;;;;;5055545;28;20465;-71
2023/03/10 13:01:20;;;;;;;1.00;0.70;;;11.00;99.90;;;;;;5027030;28;20524;-71
2023/03/10 13:03:52;;;;;;;0.50;0.43;;;11.00;99.90;;;;;;5025619;28;20913;-70